Weather at Aughrim Airstrip

Public forecast

Using degrees Celsius for public forecast. Weather courtesy of forecast.io.

Closest aviation weather report (METAR) to Aughrim Airstrip

Closest report is George Best Belfast City Airport, 32.1 nm (59.4 km) N.

2024/05/26 18:50 (retrieved 18 minutes ago)

EGAC 261850Z AUTO 17008KT 9999 SCT038 15/10 Q1006

Closest aviation forecast (TAF) to Aughrim Airstrip

Closest forecast is Belfast International Airport, 34.4 nm (63.7 km) N.

2024/05/26 18:00 (retrieved 1 hour ago)

TAF EGAA 261656Z 2618/2718 19005KT 9999 FEW020 BKN030 TEMPO 2618/2703 7000 RA SHRA BKN012 PROB30 TEMPO 2618/2619 3000 +SHRA +TSRA BKN008 BKN020CB PROB30 TEMPO 2619/2701 4000 +RA BKN009 PROB30 TEMPO 2703/2706 BKN012 PROB30 TEMPO 2711/2718 7000 SHRA